createdAt,value
2022-08-20T00:00:27.255Z,14.18
2022-08-20T00:03:03.586Z,13.68
2022-08-20T00:05:37.411Z,16.05
2022-08-20T00:08:04.568Z,16.50
2022-08-20T00:10:34.839Z,16.80
2022-08-20T00:13:02.498Z,13.65
2022-08-20T00:15:32.761Z,17.92
2022-08-20T00:18:00.393Z,13.57
2022-08-20T00:20:30.132Z,15.45
2022-08-20T00:22:57.588Z,15.38
2022-08-20T00:25:25.560Z,14.32
2022-08-20T00:27:52.301Z,15.10
2022-08-20T00:30:18.860Z,13.35
2022-08-20T00:32:49.477Z,13.55
2022-08-20T00:35:22.325Z,13.98
2022-08-20T00:38:43.031Z,13.23
2022-08-20T00:41:13.808Z,14.27
2022-08-20T00:44:01.562Z,13.80
2022-08-20T00:46:31.768Z,13.70
2022-08-20T00:48:59.401Z,15.30
2022-08-20T00:51:41.338Z,13.25
2022-08-20T00:54:16.038Z,17.83
2022-08-20T01:00:34.098Z,13.27
2022-08-20T01:03:01.654Z,18.50
2022-08-20T01:05:29.879Z,15.23
2022-08-20T01:07:57.036Z,14.80
2022-08-20T01:10:28.534Z,15.30
2022-08-20T01:12:59.305Z,14.85
2022-08-20T01:15:31.318Z,13.82
2022-08-20T01:18:01.966Z,14.73
2022-08-20T01:20:33.635Z,14.48
2022-08-20T01:23:32.600Z,15.85
2022-08-20T01:26:30.467Z,16.77
2022-08-20T01:29:06.451Z,16.75
2022-08-20T01:31:37.205Z,15.35
2022-08-20T01:34:06.593Z,15.50
2022-08-20T01:36:46.332Z,18.67
2022-08-20T01:39:15.637Z,12.00
2022-08-20T01:42:07.820Z,10.57
2022-08-20T01:44:37.413Z,11.82
2022-08-20T01:47:38.739Z,13.80
2022-08-20T01:50:18.016Z,14.35
2022-08-20T01:53:04.337Z,15.88
2022-08-20T01:55:32.751Z,16.55
2022-08-20T01:58:00.371Z,18.77
2022-08-20T02:00:27.487Z,16.73
2022-08-20T02:06:58.901Z,16.27
2022-08-20T02:09:27.932Z,18.52
2022-08-20T02:11:54.520Z,14.15
2022-08-20T02:14:21.384Z,17.67
2022-08-20T02:17:02.084Z,21.90
2022-08-20T02:19:39.335Z,18.52
2022-08-20T02:22:18.091Z,17.73
2022-08-20T02:24:44.620Z,18.27
2022-08-20T02:27:23.627Z,16.58
2022-08-20T02:29:51.244Z,19.77
2022-08-20T02:32:32.305Z,17.15
2022-08-20T02:38:31.527Z,17.77
2022-08-20T02:40:58.154Z,17.08
2022-08-20T02:43:24.666Z,17.02
2022-08-20T02:46:18.974Z,15.23
2022-08-20T02:48:45.905Z,19.48
2022-08-20T02:51:12.443Z,18.67
2022-08-20T02:53:41.250Z,17.92
2022-08-20T02:56:39.490Z,19.25
2022-08-20T02:59:06.271Z,18.88
2022-08-20T03:01:32.977Z,18.58
2022-08-20T03:04:00.144Z,18.85
2022-08-20T03:06:27.720Z,16.80
2022-08-20T03:08:54.681Z,16.63
2022-08-20T03:11:21.474Z,15.77
2022-08-20T03:13:48.067Z,16.27
2022-08-20T03:16:20.117Z,16.58
2022-08-20T03:18:47.068Z,16.58
2022-08-20T03:21:14.681Z,16.67
2022-08-20T03:23:42.692Z,18.45
2022-08-20T03:26:18.620Z,13.82
2022-08-20T03:28:45.475Z,14.98
2022-08-20T03:31:16.103Z,15.18
2022-08-20T03:33:52.636Z,15.63
2022-08-20T03:36:27.688Z,16.58
2022-08-20T03:39:00.567Z,13.02
2022-08-20T03:41:28.713Z,17.17
2022-08-20T03:43:57.965Z,18.30
2022-08-20T03:46:29.967Z,16.35
2022-08-20T03:48:59.929Z,13.07
2022-08-20T03:51:31.667Z,16.10
2022-08-20T03:54:09.970Z,14.13
2022-08-20T03:56:54.823Z,17.23
2022-08-20T03:59:21.364Z,13.77
2022-08-20T04:01:48.085Z,16.00
2022-08-20T04:04:15.612Z,14.65
2022-08-20T04:07:40.193Z,17.80
2022-08-20T04:10:11.089Z,16.73
2022-08-20T04:12:48.624Z,15.50
2022-08-20T04:15:20.516Z,14.77
2022-08-20T04:17:55.051Z,14.50
2022-08-20T04:20:26.092Z,14.88
2022-08-20T04:22:59.358Z,16.25
2022-08-20T04:25:29.756Z,15.73
2022-08-20T04:27:58.485Z,14.75
2022-08-20T04:30:25.782Z,12.10
2022-08-20T04:32:53.341Z,11.40
2022-08-20T04:35:21.102Z,13.27
2022-08-20T04:38:15.445Z,12.82
2022-08-20T04:40:55.541Z,13.93
2022-08-20T04:43:23.510Z,13.40
2022-08-20T04:46:09.821Z,12.60
2022-08-20T04:48:41.163Z,12.68
2022-08-20T04:51:15.172Z,13.35
2022-08-20T04:53:42.888Z,14.40
2022-08-20T04:56:31.034Z,12.98
2022-08-20T04:59:01.558Z,13.52
2022-08-20T05:03:56.106Z,13.63
2022-08-20T05:06:28.631Z,13.82
2022-08-20T05:08:56.779Z,14.57
2022-08-20T05:11:34.620Z,15.85
2022-08-20T05:14:09.158Z,13.77
2022-08-20T05:16:46.725Z,13.40
2022-08-20T05:19:13.787Z,15.57
2022-08-20T05:21:42.007Z,17.00
2022-08-20T05:24:10.424Z,13.52
2022-08-20T05:27:00.979Z,12.23
2022-08-20T05:29:28.637Z,13.73
2022-08-20T05:31:56.552Z,14.48
2022-08-20T05:34:23.191Z,13.88
2022-08-20T05:40:36.586Z,10.38
2022-08-20T05:43:04.837Z,11.88
2022-08-20T05:45:56.718Z,11.52
2022-08-20T05:48:25.528Z,10.90
2022-08-20T05:50:56.870Z,12.20
2022-08-20T05:53:25.221Z,13.40
2022-08-20T05:59:34.727Z,12.93
2022-08-20T06:02:01.366Z,16.38
2022-08-20T06:04:29.817Z,12.00
2022-08-20T06:07:07.193Z,11.57
2022-08-20T06:09:36.514Z,11.60
2022-08-20T06:12:06.369Z,11.68
2022-08-20T06:14:33.674Z,11.10
2022-08-20T06:17:24.467Z,12.73
2022-08-20T06:19:51.303Z,13.52
2022-08-20T06:22:23.508Z,10.25
2022-08-20T06:24:53.894Z,12.02
2022-08-20T06:27:22.893Z,9.93
2022-08-20T06:29:52.417Z,10.38
2022-08-20T06:32:27.858Z,10.25
2022-08-20T06:34:59.055Z,11.05
2022-08-20T06:37:54.456Z,11.95
2022-08-20T06:40:24.637Z,10.27
2022-08-20T06:42:52.509Z,10.75
2022-08-20T06:45:26.976Z,12.50
2022-08-20T06:47:58.015Z,10.30
2022-08-20T06:50:44.467Z,10.57
2022-08-20T06:53:17.305Z,11.23
2022-08-20T06:55:50.244Z,14.25
2022-08-20T06:58:26.606Z,10.10
2022-08-20T07:01:09.165Z,12.32
2022-08-20T07:03:54.210Z,12.18
2022-08-20T07:06:22.365Z,11.70
2022-08-20T07:08:48.976Z,16.33
2022-08-20T07:11:15.468Z,9.10
2022-08-20T07:13:42.069Z,7.78
2022-08-20T07:16:27.575Z,11.48
2022-08-20T07:18:54.192Z,8.07
2022-08-20T07:21:20.754Z,11.93
2022-08-20T07:23:48.977Z,9.40
2022-08-20T07:26:23.206Z,12.13
2022-08-20T07:28:50.080Z,9.68
2022-08-20T07:31:36.019Z,12.63
2022-08-20T07:34:03.705Z,9.68
2022-08-20T07:36:30.360Z,9.77
2022-08-20T07:38:57.242Z,14.10
2022-08-20T07:41:23.956Z,9.40
2022-08-20T07:43:50.555Z,9.68
2022-08-20T07:46:21.506Z,10.00
2022-08-20T07:48:49.870Z,13.32
2022-08-20T07:51:19.101Z,8.30
2022-08-20T07:53:47.038Z,8.95
2022-08-20T07:56:16.667Z,9.68
2022-08-20T07:58:52.529Z,8.57
2022-08-20T08:01:37.178Z,9.93
2022-08-20T08:04:04.545Z,12.00
2022-08-20T08:06:31.922Z,9.15
2022-08-20T08:09:04.390Z,8.38
2022-08-20T08:11:34.725Z,10.25
2022-08-20T08:14:02.362Z,8.55
2022-08-20T08:16:30.994Z,8.82
2022-08-20T08:18:58.402Z,11.35
2022-08-20T08:21:26.163Z,8.90
2022-08-20T08:23:53.408Z,11.73
2022-08-20T08:26:20.561Z,7.15
2022-08-20T08:28:47.048Z,10.55
2022-08-20T08:31:15.069Z,7.68
2022-08-20T08:33:42.635Z,7.88
2022-08-20T08:36:15.368Z,8.68
2022-08-20T08:38:44.296Z,9.45
2022-08-20T08:41:26.668Z,8.55
2022-08-20T08:43:54.683Z,6.32
2022-08-20T08:46:27.366Z,7.38
2022-08-20T08:48:58.792Z,6.35
2022-08-20T08:51:42.130Z,7.85
2022-08-20T08:54:10.301Z,9.20
2022-08-20T08:56:37.144Z,7.97
2022-08-20T08:59:08.557Z,8.15
2022-08-20T09:01:56.156Z,7.00
2022-08-20T09:04:30.366Z,7.45
2022-08-20T09:07:02.729Z,6.30
2022-08-20T09:09:37.005Z,9.85
2022-08-20T09:12:15.195Z,9.82
2022-08-20T09:14:41.595Z,8.07
2022-08-20T09:17:08.444Z,4.72
2022-08-20T09:19:37.851Z,8.70
2022-08-20T09:22:16.246Z,5.22
2022-08-20T09:24:43.881Z,6.25
2022-08-20T09:27:10.672Z,7.80
2022-08-20T09:29:37.699Z,6.97
2022-08-20T09:32:13.365Z,8.20
2022-08-20T09:34:45.254Z,6.80
2022-08-20T09:37:12.883Z,7.63
2022-08-20T09:39:40.014Z,5.60
2022-08-20T09:42:19.150Z,7.53
2022-08-20T09:44:46.403Z,6.75
2022-08-20T09:47:15.710Z,6.95
2022-08-20T09:49:42.192Z,7.72
2022-08-20T09:52:11.123Z,4.80
2022-08-20T09:54:40.129Z,9.07
2022-08-20T09:57:14.690Z,6.38
2022-08-20T09:59:41.596Z,9.27
2022-08-20T10:02:08.169Z,5.60
2022-08-20T10:04:34.695Z,6.45
2022-08-20T10:07:01.304Z,6.53
2022-08-20T10:09:27.851Z,7.13
2022-08-20T10:11:54.330Z,6.53
2022-08-20T10:14:20.805Z,5.35
2022-08-20T10:16:54.510Z,7.43
2022-08-20T10:19:22.888Z,6.65
2022-08-20T10:21:54.851Z,4.47
2022-08-20T10:24:22.406Z,6.93
2022-08-20T10:26:49.954Z,6.53
2022-08-20T10:29:16.746Z,6.47
2022-08-20T10:31:43.247Z,5.95
2022-08-20T10:34:09.774Z,8.13
2022-08-20T10:36:36.356Z,8.55
2022-08-20T10:39:02.956Z,6.47
2022-08-20T10:41:29.492Z,6.03
2022-08-20T10:43:55.927Z,6.68
2022-08-20T10:46:22.969Z,6.05
2022-08-20T10:48:49.407Z,5.45
2022-08-20T10:51:15.944Z,7.97
2022-08-20T10:53:42.789Z,6.88
2022-08-20T10:56:12.668Z,7.68
2022-08-20T10:58:41.487Z,8.55
2022-08-20T11:01:08.947Z,5.57
2022-08-20T11:03:35.891Z,8.25
2022-08-20T11:06:03.081Z,7.25
2022-08-20T11:08:34.470Z,8.07
2022-08-20T11:11:02.875Z,7.35
2022-08-20T11:13:29.362Z,7.95
2022-08-20T11:15:56.129Z,8.85
2022-08-20T11:18:22.534Z,5.55
2022-08-20T11:20:50.906Z,5.47
2022-08-20T11:23:17.505Z,8.95
2022-08-20T11:25:48.021Z,6.90
2022-08-20T11:28:15.571Z,4.47
2022-08-20T11:30:42.134Z,5.38
2022-08-20T11:33:09.350Z,8.93
2022-08-20T11:35:49.016Z,8.48
2022-08-20T11:38:17.497Z,8.20
2022-08-20T11:40:44.030Z,6.95
2022-08-20T11:43:14.610Z,6.82
2022-08-20T11:45:42.124Z,5.75
2022-08-20T11:48:08.660Z,9.30
2022-08-20T11:50:35.230Z,7.30
2022-08-20T11:53:01.863Z,7.78
2022-08-20T11:55:30.402Z,5.45
2022-08-20T11:58:01.136Z,6.30
2022-08-20T12:00:32.409Z,7.47
2022-08-20T12:03:01.112Z,7.20
2022-08-20T12:05:30.437Z,7.70
2022-08-20T12:08:01.262Z,7.90
2022-08-20T12:10:31.675Z,4.13
2022-08-20T12:12:58.771Z,6.85
2022-08-20T12:15:29.210Z,5.03
2022-08-20T12:20:28.542Z,8.38
2022-08-20T12:22:55.333Z,7.05
2022-08-20T12:25:22.003Z,6.32
2022-08-20T12:27:49.642Z,6.40
2022-08-20T12:30:22.612Z,7.72
2022-08-20T12:32:49.073Z,6.50
2022-08-20T12:35:17.633Z,4.97
2022-08-20T12:37:45.386Z,9.60
2022-08-20T12:40:17.561Z,7.40
2022-08-20T12:42:53.076Z,11.13
2022-08-20T12:45:20.491Z,8.90
2022-08-20T12:47:48.011Z,9.90
2022-08-20T12:50:18.553Z,11.32
2022-08-20T12:52:45.609Z,5.53
2022-08-20T12:55:14.563Z,8.65
2022-08-20T12:57:50.121Z,9.50
2022-08-20T13:00:25.947Z,14.90
2022-08-20T13:02:55.982Z,8.55
2022-08-20T13:05:23.106Z,7.65
2022-08-20T13:07:49.775Z,6.82
2022-08-20T13:10:25.659Z,10.15
2022-08-20T13:12:52.377Z,8.00
2022-08-20T13:15:19.785Z,8.02
2022-08-20T13:17:53.876Z,7.05
2022-08-20T13:20:34.219Z,7.93
2022-08-20T13:23:02.844Z,7.75
2022-08-20T13:25:29.543Z,8.98
2022-08-20T13:28:02.206Z,10.35
2022-08-20T13:30:28.664Z,7.18
2022-08-20T13:32:55.224Z,10.15
2022-08-20T13:35:22.380Z,8.85
2022-08-20T13:37:49.675Z,8.45
2022-08-20T13:40:17.108Z,8.88
2022-08-20T13:42:43.762Z,9.25
2022-08-20T13:45:10.782Z,8.77
2022-08-20T13:47:39.387Z,10.05
2022-08-20T13:50:12.812Z,10.52
2022-08-20T13:52:46.096Z,9.00
2022-08-20T13:55:18.861Z,11.70
2022-08-20T13:57:46.540Z,8.00
2022-08-20T14:00:18.190Z,8.70
2022-08-20T14:02:44.871Z,8.65
2022-08-20T14:05:12.287Z,11.20
2022-08-20T14:07:44.082Z,10.95
2022-08-20T14:10:14.715Z,8.43
2022-08-20T14:12:41.332Z,6.97
2022-08-20T14:15:09.018Z,7.45
2022-08-20T14:17:38.193Z,9.10
2022-08-20T14:20:11.773Z,7.05
2022-08-20T14:22:38.291Z,8.43
2022-08-20T14:25:06.097Z,9.23
2022-08-20T14:27:33.935Z,10.07
2022-08-20T14:30:01.187Z,8.25
2022-08-20T14:32:28.360Z,6.82
2022-08-20T14:34:56.577Z,5.93
2022-08-20T14:37:26.268Z,5.55
2022-08-20T14:39:57.043Z,8.85
2022-08-20T14:42:26.418Z,7.22
2022-08-20T14:44:53.515Z,8.02
2022-08-20T14:47:24.074Z,7.65
2022-08-20T14:49:52.956Z,9.30
2022-08-20T14:52:20.863Z,8.00
2022-08-20T14:54:48.262Z,7.20
2022-08-20T14:57:17.312Z,6.75
2022-08-20T14:59:44.657Z,8.27
2022-08-20T15:02:13.349Z,7.70
2022-08-20T15:04:40.983Z,10.07
2022-08-20T15:07:15.824Z,7.15
2022-08-20T15:09:42.936Z,8.90
2022-08-20T15:12:20.741Z,8.93
2022-08-20T15:14:48.159Z,7.28
2022-08-20T15:17:24.695Z,11.30
2022-08-20T15:19:51.509Z,8.05
2022-08-20T15:22:19.025Z,8.35
2022-08-20T15:24:45.620Z,7.75
2022-08-20T15:27:21.813Z,7.57
2022-08-20T15:29:49.561Z,6.93
2022-08-20T15:32:18.888Z,8.90
2022-08-20T15:34:47.102Z,6.53
2022-08-20T15:37:21.846Z,8.38
2022-08-20T15:39:49.685Z,9.55
2022-08-20T15:42:22.715Z,7.47
2022-08-20T15:44:49.497Z,6.60
2022-08-20T15:47:53.846Z,4.97
2022-08-20T15:51:03.001Z,6.25
2022-08-20T15:53:52.802Z,7.35
2022-08-20T15:56:37.544Z,5.78
2022-08-20T15:59:31.968Z,7.85
2022-08-20T16:02:16.371Z,7.15
2022-08-20T16:05:00.970Z,6.93
2022-08-20T16:07:39.856Z,5.25
2022-08-20T16:10:30.274Z,8.00
2022-08-20T16:13:00.213Z,6.15
2022-08-20T16:15:33.028Z,7.55
2022-08-20T16:18:10.261Z,5.38
2022-08-20T16:20:43.596Z,5.68
2022-08-20T16:23:20.104Z,6.30
2022-08-20T16:26:25.382Z,10.07
2022-08-20T16:29:00.734Z,5.57
2022-08-20T16:31:40.989Z,11.25
2022-08-20T16:34:33.740Z,8.43
2022-08-20T16:37:10.117Z,7.47
2022-08-20T16:39:52.008Z,5.30
2022-08-20T16:42:23.206Z,5.40
2022-08-20T16:44:52.930Z,7.55
2022-08-20T16:47:29.946Z,7.10
2022-08-20T16:50:15.996Z,7.15
2022-08-20T16:52:45.065Z,6.50
2022-08-20T16:55:12.995Z,5.35
2022-08-20T16:57:39.829Z,7.10
2022-08-20T17:00:15.526Z,7.55
2022-08-20T17:02:57.935Z,7.05
2022-08-20T17:05:31.432Z,8.10
2022-08-20T17:08:03.607Z,7.70
2022-08-20T17:10:37.368Z,6.50
2022-08-20T17:13:32.606Z,5.55
2022-08-20T17:16:21.138Z,8.07
2022-08-20T17:21:23.439Z,6.68
2022-08-20T17:24:00.715Z,5.90
2022-08-20T17:26:35.280Z,6.00
2022-08-20T17:29:17.366Z,6.15
2022-08-20T17:31:55.346Z,7.43
2022-08-20T17:34:28.887Z,6.25
2022-08-20T17:37:07.238Z,6.13
2022-08-20T17:39:37.043Z,6.78
2022-08-20T17:42:15.632Z,6.65
2022-08-20T17:44:50.071Z,7.13
2022-08-20T17:47:19.009Z,6.35
2022-08-20T17:50:02.798Z,5.68
2022-08-20T17:52:41.503Z,5.55
2022-08-20T17:55:08.681Z,7.65
2022-08-20T17:57:38.840Z,5.80
2022-08-20T18:00:14.594Z,4.50
2022-08-20T18:02:42.237Z,4.90
2022-08-20T18:05:19.342Z,6.18
2022-08-20T18:08:04.449Z,6.68
2022-08-20T18:10:38.685Z,6.65
2022-08-20T18:13:14.963Z,7.72
2022-08-20T18:15:50.574Z,7.07
2022-08-20T18:18:19.942Z,4.22
2022-08-20T18:20:59.662Z,5.55
2022-08-20T18:23:41.284Z,9.07
2022-08-20T18:26:36.905Z,5.47
2022-08-20T18:29:10.984Z,6.68
2022-08-20T18:31:46.722Z,5.63
2022-08-20T18:34:17.600Z,4.45
2022-08-20T18:36:56.004Z,4.47
2022-08-20T18:39:31.835Z,4.38
2022-08-20T18:42:30.766Z,5.35
2022-08-20T18:44:57.848Z,4.15
2022-08-20T18:47:34.411Z,6.05
2022-08-20T18:52:46.817Z,6.65
2022-08-20T18:55:27.026Z,5.13
2022-08-20T18:57:57.948Z,7.13
2022-08-20T19:00:27.561Z,4.70
2022-08-20T19:03:07.576Z,7.78
2022-08-20T19:05:46.333Z,6.75
2022-08-20T19:08:17.963Z,7.18
2022-08-20T19:11:35.080Z,7.63
2022-08-20T19:14:40.344Z,5.18
2022-08-20T19:17:16.322Z,4.25
2022-08-20T19:19:42.875Z,6.38
2022-08-20T19:22:12.896Z,8.85
2022-08-20T19:24:44.148Z,5.50
2022-08-20T19:27:12.445Z,4.10
2022-08-20T19:29:50.178Z,5.35
2022-08-20T19:32:29.647Z,11.20
2022-08-20T19:35:02.934Z,5.13
2022-08-20T19:37:39.833Z,6.30
2022-08-20T19:40:31.444Z,8.15
2022-08-20T19:43:04.629Z,7.85
2022-08-20T19:45:45.108Z,5.78
2022-08-20T19:48:48.255Z,5.45
2022-08-20T19:51:40.763Z,6.65
2022-08-20T19:54:21.334Z,5.93
2022-08-20T19:56:48.397Z,8.45
2022-08-20T19:59:21.055Z,6.40
2022-08-20T20:02:01.203Z,6.40
2022-08-20T20:04:36.042Z,5.30
2022-08-20T20:07:08.807Z,7.15
2022-08-20T20:09:35.334Z,5.53
2022-08-20T20:12:07.993Z,5.53
2022-08-20T20:14:37.382Z,5.63
2022-08-20T20:17:07.869Z,6.00
2022-08-20T20:22:31.094Z,7.97
2022-08-20T20:25:17.486Z,6.50
2022-08-20T20:27:56.540Z,5.95
2022-08-20T20:30:32.737Z,5.32
2022-08-20T20:33:01.592Z,7.03
2022-08-20T20:35:33.061Z,5.75
2022-08-20T20:38:09.863Z,8.43
2022-08-20T20:40:46.440Z,6.03
2022-08-20T20:43:24.710Z,7.18
2022-08-20T20:46:23.222Z,5.65
2022-08-20T20:48:54.181Z,6.95
2022-08-20T20:51:37.225Z,5.78
2022-08-20T20:54:07.505Z,7.95
2022-08-20T20:56:38.504Z,5.40
2022-08-20T20:59:07.906Z,6.15
2022-08-20T21:01:48.786Z,5.07
2022-08-20T21:04:16.602Z,6.50
2022-08-20T21:06:43.672Z,9.38
2022-08-20T21:09:10.098Z,6.38
2022-08-20T21:11:36.625Z,6.53
2022-08-20T21:14:03.052Z,7.03
2022-08-20T21:16:29.645Z,5.75
2022-08-20T21:18:56.329Z,7.18
2022-08-20T21:21:22.726Z,6.00
2022-08-20T21:23:49.148Z,4.68
2022-08-20T21:26:15.792Z,7.10
2022-08-20T21:28:42.229Z,5.22
2022-08-20T21:31:08.715Z,7.32
2022-08-20T21:33:35.101Z,5.38
2022-08-20T21:36:01.650Z,8.07
2022-08-20T21:38:28.235Z,5.82
2022-08-20T21:40:54.783Z,4.43
2022-08-20T21:43:24.998Z,5.63
2022-08-20T21:45:51.778Z,7.57
2022-08-20T21:48:19.196Z,5.30
2022-08-20T21:50:45.815Z,4.63
2022-08-20T21:53:13.165Z,6.65
2022-08-20T21:55:40.610Z,6.57
2022-08-20T21:58:07.640Z,5.05
2022-08-20T22:00:50.844Z,5.53
2022-08-20T22:03:20.177Z,6.70
2022-08-20T22:05:48.497Z,4.60
2022-08-20T22:08:15.649Z,6.30
2022-08-20T22:10:42.096Z,4.20
2022-08-20T22:13:08.685Z,7.13
2022-08-20T22:15:35.221Z,4.68
2022-08-20T22:18:01.896Z,6.15
2022-08-20T22:20:28.841Z,5.55
2022-08-20T22:22:59.850Z,7.45
2022-08-20T22:25:26.478Z,6.30
2022-08-20T22:27:52.886Z,6.30
2022-08-20T22:30:19.515Z,7.20
2022-08-20T22:32:51.891Z,5.93
2022-08-20T22:35:19.835Z,5.65
2022-08-20T22:37:46.334Z,8.70
2022-08-20T22:40:13.079Z,6.13
2022-08-20T22:42:39.581Z,5.53
2022-08-20T22:45:11.724Z,4.15
2022-08-20T22:47:42.314Z,5.88
2022-08-20T22:50:12.325Z,5.57
2022-08-20T22:52:40.106Z,5.38
2022-08-20T22:55:07.399Z,4.90
2022-08-20T22:57:37.595Z,4.97
2022-08-20T23:00:12.355Z,9.60
2022-08-20T23:02:41.188Z,7.53
2022-08-20T23:05:13.958Z,6.32
2022-08-20T23:07:41.593Z,7.78
2022-08-20T23:10:08.496Z,5.55
2022-08-20T23:12:35.113Z,5.80
2022-08-20T23:15:01.885Z,5.93
2022-08-20T23:17:29.070Z,5.47
2022-08-20T23:19:55.515Z,6.03
2022-08-20T23:22:22.355Z,7.00
2022-08-20T23:24:48.828Z,6.90
2022-08-20T23:27:18.470Z,5.50
2022-08-20T23:29:45.067Z,7.55
2022-08-20T23:32:12.662Z,6.28
2022-08-20T23:34:39.410Z,6.50
2022-08-20T23:37:07.212Z,6.50
2022-08-20T23:39:34.447Z,4.90
2022-08-20T23:42:01.327Z,6.50
2022-08-20T23:44:28.125Z,7.95
2022-08-20T23:46:57.131Z,5.57
2022-08-20T23:49:23.922Z,7.22
2022-08-20T23:51:50.380Z,6.00
2022-08-20T23:54:16.773Z,8.82
2022-08-20T23:56:43.437Z,6.30
2022-08-20T23:59:09.910Z,6.50
